Time;durP1;ratioP1;P1;durP2;ratioP2;P2;SDS_P1;SDS_P2;PMS_P1;PMS_P2;Temp;Humidity;BMP_temperature;BMP_pressure;BME280_temperature;BME280_humidity;BME280_pressure;Samples;Min_cycle;Max_cycle;Signal;HPM_P1;HPM_P2
2023/03/27 00:00:31;;;;;;;7.60;4.40;;;;;;;6.22;87.67;95100.58;109242;1272;22608;-81
2023/03/27 00:03:22;;;;;;;6.80;4.30;;;;;;;6.22;87.98;95104.48;109222;1268;22510;-82
2023/03/27 00:06:02;;;;;;;7.80;4.80;;;;;;;6.28;88.01;95102.27;109275;1272;22515;-81
2023/03/27 00:08:38;;;;;;;8.30;5.00;;;;;;;6.37;88.05;95101.51;109287;1272;37689;-81
2023/03/27 00:11:11;;;;;;;10.40;6.30;;;;;;;6.41;87.86;95102.89;109216;1273;23214;-81
2023/03/27 00:13:44;;;;;;;7.60;4.40;;;;;;;6.39;87.89;95094.79;109283;1272;22575;-82
2023/03/27 00:16:16;;;;;;;6.10;4.40;;;;;;;6.31;88.38;95090.70;109081;1271;22540;-81
2023/03/27 00:18:47;;;;;;;8.90;5.10;;;;;;;6.19;88.97;95085.67;109171;1272;68702;-81
2023/03/27 00:21:21;;;;;;;10.50;5.60;;;;;;;6.13;89.15;95084.98;109245;1272;22528;-81
2023/03/27 00:23:53;;;;;;;9.70;5.00;;;;;;;6.12;89.22;95082.73;109207;1272;22651;-81
2023/03/27 00:26:24;;;;;;;9.10;5.40;;;;;;;6.17;89.48;95085.02;109209;1268;22564;-81
2023/03/27 00:28:55;;;;;;;8.20;5.40;;;;;;;6.24;89.42;95085.13;109141;1273;50154;-82
2023/03/27 00:31:29;;;;;;;8.40;4.70;;;;;;;6.30;89.43;95086.39;109190;1273;22483;-82
2023/03/27 00:34:02;;;;;;;8.30;5.40;;;;;;;6.32;89.32;95085.14;109238;1272;23012;-81
2023/03/27 00:36:33;;;;;;;9.00;4.60;;;;;;;6.31;89.07;95084.70;109292;1266;22569;-81
2023/03/27 00:39:06;;;;;;;8.20;5.50;;;;;;;6.28;89.20;95084.63;109121;1272;75596;-81
2023/03/27 00:41:37;;;;;;;8.80;5.20;;;;;;;6.30;89.27;95082.66;109241;1265;22569;-81
2023/03/27 00:44:23;;;;;;;8.70;5.30;;;;;;;6.32;89.47;95079.67;109287;1272;22657;-81
2023/03/27 00:46:56;;;;;;;9.60;5.50;;;;;;;6.34;89.35;95075.59;109206;1263;47455;-82
2023/03/27 00:49:31;;;;;;;9.50;5.70;;;;;;;6.38;89.25;95074.42;109232;1269;22478;-81
2023/03/27 00:52:05;;;;;;;7.50;5.40;;;;;;;6.39;89.08;95073.45;109258;1272;22717;-81
2023/03/27 00:54:40;;;;;;;9.50;5.70;;;;;;;6.40;89.15;95063.23;109232;1273;22514;-82
2023/03/27 00:57:17;;;;;;;7.80;5.00;;;;;;;6.43;89.27;95057.27;109225;1272;60728;-82
2023/03/27 00:59:53;;;;;;;7.90;5.00;;;;;;;6.47;89.05;95061.27;109265;1268;24212;-81
2023/03/27 01:02:25;;;;;;;7.80;5.30;;;;;;;6.49;89.05;95058.35;109286;1266;24186;-81
2023/03/27 01:04:59;;;;;;;9.60;5.60;;;;;;;6.52;89.25;95053.34;109204;1272;22549;-82
2023/03/27 01:07:30;;;;;;;7.50;5.00;;;;;;;6.53;89.06;95053.16;107687;1272;2066924;-82
2023/03/27 01:10:05;;;;;;;9.00;5.60;;;;;;;6.52;89.03;95044.65;109258;1272;22585;-82
2023/03/27 01:12:45;;;;;;;7.40;5.00;;;;;;;6.52;89.02;95039.64;109294;1268;23182;-82
2023/03/27 01:15:34;;;;;;;8.80;4.80;;;;;;;6.51;89.17;95038.77;109288;1272;22454;-82
2023/03/27 01:18:25;;;;;;;9.10;5.50;;;;;;;6.50;89.03;95032.89;109162;1273;56904;-82
2023/03/27 01:21:32;;;;;;;8.50;5.00;;;;;;;6.52;89.13;95027.21;109236;1272;23900;-81
2023/03/27 01:24:55;;;;;;;9.90;5.10;;;;;;;6.53;89.19;95021.24;109252;1269;22578;-82
2023/03/27 01:27:44;;;;;;;9.00;5.20;;;;;;;6.55;89.17;95016.58;109173;1273;46988;-82
2023/03/27 01:30:26;;;;;;;9.70;5.50;;;;;;;6.55;89.18;95013.15;109323;1261;23808;-82
2023/03/27 01:33:41;;;;;;;6.30;4.50;;;;;;;6.53;89.15;95014.46;109236;1267;23058;-82
2023/03/27 01:36:34;;;;;;;7.10;4.90;;;;;;;6.52;89.23;95009.68;109253;1272;22486;-81
2023/03/27 01:39:28;;;;;;;8.60;5.50;;;;;;;6.53;89.32;95003.98;109147;1272;77561;-81
2023/03/27 01:42:08;;;;;;;9.70;5.70;;;;;;;6.54;89.35;95003.13;109202;1272;22479;-82
2023/03/27 01:44:47;;;;;;;7.40;5.00;;;;;;;6.53;89.27;94991.02;109279;1272;22690;-81
2023/03/27 01:47:28;;;;;;;7.90;5.20;;;;;;;6.50;89.32;94989.04;109232;1272;54392;-81
2023/03/27 01:50:05;;;;;;;8.90;5.30;;;;;;;6.45;89.24;94986.85;109315;1272;25326;-82
2023/03/27 01:52:42;;;;;;;7.40;4.40;;;;;;;6.41;89.47;94986.46;109285;1268;22562;-82
2023/03/27 01:55:19;;;;;;;7.70;4.70;;;;;;;6.39;89.38;94990.50;109286;1269;22760;-81
2023/03/27 01:57:59;;;;;;;10.80;5.60;;;;;;;6.39;89.53;94991.55;109345;1268;62284;-81
2023/03/27 02:00:34;;;;;;;10.20;4.90;;;;;;;6.41;89.50;94987.61;109214;1272;24273;-82
2023/03/27 02:03:14;;;;;;;9.50;5.40;;;;;;;6.42;89.62;94984.18;109272;1272;22589;-81
2023/03/27 02:05:52;;;;;;;7.90;5.20;;;;;;;6.42;89.82;94984.33;109238;1267;22605;-81
2023/03/27 02:08:28;;;;;;;6.70;4.70;;;;;;;6.43;89.91;94986.20;109139;1272;85039;-81
2023/03/27 02:11:00;;;;;;;7.40;4.80;;;;;;;6.43;90.02;94982.58;109212;1272;26153;-81
2023/03/27 02:13:38;;;;;;;7.30;5.30;;;;;;;6.44;89.93;94979.92;109184;1273;23298;-81
2023/03/27 02:16:16;;;;;;;7.00;4.90;;;;;;;6.46;90.09;94970.19;109227;1269;22475;-81
2023/03/27 02:18:56;;;;;;;8.40;5.60;;;;;;;6.48;90.01;94968.44;109191;1272;26541;-81
2023/03/27 02:21:31;;;;;;;9.80;5.60;;;;;;;6.47;90.00;94966.02;109265;1272;22476;-81
2023/03/27 02:24:04;;;;;;;10.10;6.40;;;;;;;6.46;90.02;94969.67;109266;1272;25517;-81
2023/03/27 02:26:36;;;;;;;8.80;5.30;;;;;;;6.46;90.15;94966.66;109217;1267;22569;-81
2023/03/27 02:29:26;;;;;;;10.50;5.70;;;;;;;6.45;90.35;94965.80;109248;1272;56854;-81
2023/03/27 02:32:02;;;;;;;;;;;;;;;6.43;90.08;94957.77;109309;1268;22496;-81
2023/03/27 02:34:59;;;;;;;5.50;4.70;;;;;;;6.41;90.29;94959.55;109307;1272;22627;-81
2023/03/27 02:37:38;;;;;;;8.40;4.90;;;;;;;6.40;90.32;94958.36;109242;1269;56614;-81
2023/03/27 02:40:19;;;;;;;7.70;4.90;;;;;;;6.37;90.38;94955.11;109205;1268;22567;-81
2023/03/27 02:43:06;;;;;;;7.30;5.00;;;;;;;6.35;90.43;94958.59;109276;1272;25454;-81
2023/03/27 02:45:47;;;;;;;9.20;5.00;;;;;;;6.34;90.56;94958.38;109272;1272;22548;-81
2023/03/27 02:48:25;;;;;;;7.00;4.80;;;;;;;6.34;90.55;94958.06;109237;1272;44608;-81
2023/03/27 02:51:03;;;;;;;7.10;4.40;;;;;;;6.34;90.41;94957.12;109211;1272;22472;-81
2023/03/27 02:53:43;;;;;;;9.00;4.90;;;;;;;6.32;90.49;94959.34;109288;1272;23848;-81
2023/03/27 02:56:25;;;;;;;6.40;4.70;;;;;;;6.31;90.44;94961.00;109305;1272;22453;-81
2023/03/27 02:59:02;;;;;;;8.10;4.40;;;;;;;6.28;90.43;94967.44;109313;1272;122086;-81
2023/03/27 03:01:36;;;;;;;6.40;4.60;;;;;;;6.25;90.50;94967.23;109308;1272;22495;-81
2023/03/27 03:04:15;;;;;;;5.60;4.00;;;;;;;6.24;90.60;94968.02;109271;1272;23187;-81
2023/03/27 03:06:49;;;;;;;6.10;4.40;;;;;;;6.24;90.73;94966.96;109274;1270;25438;-81
2023/03/27 03:09:30;;;;;;;7.50;4.20;;;;;;;6.22;90.54;94965.48;109268;1272;23288;-81
2023/03/27 03:12:01;;;;;;;6.40;4.30;;;;;;;6.20;90.39;94965.27;109250;1272;22441;-81
2023/03/27 03:14:37;;;;;;;6.60;4.30;;;;;;;6.19;90.59;94965.16;109282;1266;22829;-81
2023/03/27 03:17:20;;;;;;;5.70;3.90;;;;;;;6.18;90.58;94964.95;107690;1271;2017437;-81
2023/03/27 03:19:55;;;;;;;7.00;3.70;;;;;;;6.20;90.73;94967.42;109219;1272;22604;-81
2023/03/27 03:22:27;;;;;;;6.10;4.10;;;;;;;6.21;90.78;94964.40;109293;1271;22583;-81
2023/03/27 03:25:01;;;;;;;5.60;3.50;;;;;;;6.21;90.70;94970.09;109256;1269;22473;-81
2023/03/27 03:27:32;;;;;;;6.20;4.00;;;;;;;6.19;90.76;94967.94;107598;1267;2183595;-81
2023/03/27 03:30:09;;;;;;;6.60;4.70;;;;;;;6.19;90.74;94967.02;109222;1272;22636;-81
2023/03/27 03:32:47;;;;;;;6.90;4.10;;;;;;;6.20;90.96;94966.95;109261;1272;22615;-81
2023/03/27 03:35:18;;;;;;;4.90;4.20;;;;;;;6.18;90.70;94967.23;109275;1272;22491;-81
2023/03/27 03:38:00;;;;;;;6.90;4.40;;;;;;;6.15;90.65;94964.39;107820;1272;1843611;-81
2023/03/27 03:40:36;;;;;;;6.20;3.70;;;;;;;6.14;90.83;94966.40;109171;1272;24188;-82
2023/03/27 03:43:11;;;;;;;7.30;4.10;;;;;;;6.16;90.78;94964.07;109209;1273;22499;-81
2023/03/27 03:45:42;;;;;;;7.00;3.90;;;;;;;6.16;90.77;94966.42;109202;1270;25447;-81
2023/03/27 03:48:16;;;;;;;5.10;3.80;;;;;;;6.18;90.94;94965.64;109213;1272;118228;-82
2023/03/27 03:50:49;;;;;;;4.90;3.70;;;;;;;6.18;90.71;94960.22;109278;1264;22560;-81
2023/03/27 03:53:27;;;;;;;5.60;3.70;;;;;;;6.16;90.85;94958.46;109277;1267;22516;-81
2023/03/27 03:56:01;;;;;;;6.60;3.90;;;;;;;6.17;90.79;94956.67;109209;1270;22617;-82
2023/03/27 03:58:33;;;;;;;5.30;3.80;;;;;;;6.16;90.89;94956.20;107940;1272;1782966;-82
2023/03/27 04:01:04;;;;;;;4.50;3.30;;;;;;;6.17;90.90;94958.35;109234;1264;24276;-81
2023/03/27 04:03:35;;;;;;;4.60;3.50;;;;;;;6.18;91.00;94959.75;109311;1251;22502;-81
2023/03/27 04:06:11;;;;;;;5.40;3.50;;;;;;;6.16;91.06;94953.48;109238;1257;22662;-82
2023/03/27 04:08:49;;;;;;;6.10;3.50;;;;;;;6.11;91.13;94950.42;109207;1268;78934;-82
2023/03/27 04:11:21;;;;;;;5.10;3.70;;;;;;;6.10;91.13;94948.55;109201;1267;22539;-82
2023/03/27 04:13:57;;;;;;;6.30;4.20;;;;;;;6.09;91.45;94943.16;109250;1267;22545;-81
2023/03/27 04:16:33;;;;;;;6.60;4.20;;;;;;;6.09;91.48;94947.41;109298;1272;24189;-81
2023/03/27 04:19:04;;;;;;;7.20;4.00;;;;;;;6.09;91.46;94948.30;107994;1272;1804476;-81
2023/03/27 04:21:38;;;;;;;6.40;4.20;;;;;;;6.06;91.42;94949.57;109383;1272;22512;-81
2023/03/27 04:24:12;;;;;;;6.80;4.50;;;;;;;6.05;91.71;94946.41;109334;1272;22532;-82
2023/03/27 04:26:45;;;;;;;6.80;4.80;;;;;;;6.04;91.77;94945.67;109369;1272;22591;-81
2023/03/27 04:29:16;;;;;;;5.70;4.10;;;;;;;6.04;91.80;94944.84;107838;1272;2070953;-82
2023/03/27 04:31:48;;;;;;;5.50;4.20;;;;;;;6.02;92.05;94941.94;109334;1251;22534;-81
2023/03/27 04:34:21;;;;;;;5.20;4.20;;;;;;;6.01;92.11;94944.74;109381;1272;22628;-81
2023/03/27 04:36:59;;;;;;;6.50;4.40;;;;;;;6.00;92.05;94940.86;109303;1272;22589;-81
2023/03/27 04:39:41;;;;;;;7.10;5.20;;;;;;;5.99;92.22;94937.48;109393;1272;22714;-81
2023/03/27 04:42:14;;;;;;;7.90;4.80;;;;;;;5.98;92.28;94936.66;109339;1270;22900;-82
2023/03/27 04:44:46;;;;;;;7.30;4.40;;;;;;;5.94;92.32;94935.45;109355;1272;22569;-81
2023/03/27 04:47:19;;;;;;;6.20;4.60;;;;;;;5.92;92.51;94935.55;109267;1272;86573;-81
2023/03/27 04:49:53;;;;;;;6.00;4.70;;;;;;;5.92;92.67;94939.39;109347;1272;23072;-82
2023/03/27 04:52:25;;;;;;;6.10;4.60;;;;;;;5.92;92.72;94932.39;109347;1268;22553;-81
2023/03/27 04:54:59;;;;;;;6.10;4.70;;;;;;;5.89;92.72;94932.14;109314;1272;25526;-81
2023/03/27 04:57:38;;;;;;;6.20;5.10;;;;;;;5.88;92.88;94934.98;109241;1270;118623;-81
2023/03/27 05:00:15;;;;;;;5.80;5.10;;;;;;;5.87;92.97;94929.13;109369;1272;22724;-81
2023/03/27 05:02:47;;;;;;;6.10;4.90;;;;;;;5.85;93.14;94927.95;109281;1272;23297;-82
2023/03/27 05:05:19;;;;;;;8.80;5.70;;;;;;;5.84;93.18;94934.19;109340;1267;22598;-82
2023/03/27 05:07:56;;;;;;;6.70;4.90;;;;;;;5.84;93.18;94931.50;109206;1272;82701;-82
2023/03/27 05:10:34;;;;;;;6.20;5.30;;;;;;;5.83;93.30;94925.46;105896;1267;4543732;-81
2023/03/27 05:13:08;;;;;;;5.80;5.20;;;;;;;5.83;93.16;94927.25;109271;1266;25412;-82
2023/03/27 05:15:42;;;;;;;6.80;5.40;;;;;;;5.83;93.48;94923.84;109310;1272;22535;-82
2023/03/27 05:18:15;;;;;;;8.60;5.80;;;;;;;5.81;93.30;94924.40;109268;1270;33291;-81
2023/03/27 05:20:48;;;;;;;7.50;5.50;;;;;;;5.79;93.37;94930.70;109329;1266;22510;-82
2023/03/27 05:23:28;;;;;;;6.20;5.20;;;;;;;5.79;93.55;94936.38;109271;1265;25675;-81
2023/03/27 05:25:59;;;;;;;7.50;5.90;;;;;;;5.77;93.62;94938.91;109285;1272;23366;-81
2023/03/27 05:28:30;;;;;;;7.10;5.70;;;;;;;5.76;93.48;94939.92;109271;1251;61457;-81
2023/03/27 05:31:01;;;;;;;7.20;5.70;;;;;;;5.78;93.70;94941.08;109258;1273;22706;-81
2023/03/27 05:33:32;;;;;;;6.50;5.80;;;;;;;5.76;93.86;94943.28;109246;1272;22617;-81
2023/03/27 05:36:08;;;;;;;7.40;6.00;;;;;;;5.78;93.70;94941.07;109325;1265;22623;-82
2023/03/27 05:38:45;;;;;;;7.70;6.70;;;;;;;5.78;93.90;94945.55;109141;1272;88217;-81
2023/03/27 05:41:18;;;;;;;8.80;6.70;;;;;;;5.78;94.05;94949.95;109313;1270;23323;-81
2023/03/27 05:43:54;;;;;;;9.10;7.50;;;;;;;5.80;94.20;94948.50;109339;1272;22542;-81
2023/03/27 05:46:27;;;;;;;9.00;6.90;;;;;;;5.83;94.13;94954.07;109389;1272;22639;-81
2023/03/27 05:48:58;;;;;;;7.90;7.10;;;;;;;5.84;94.04;94958.05;109271;1268;88009;-81
2023/03/27 05:51:32;;;;;;;9.20;8.00;;;;;;;5.86;94.26;94959.42;109335;1272;24012;-81
2023/03/27 05:54:10;;;;;;;8.40;7.30;;;;;;;5.86;94.23;94962.95;109381;1272;22542;-81
2023/03/27 05:56:51;;;;;;;10.30;8.40;;;;;;;5.87;94.38;94967.73;109408;1272;22664;-81
2023/03/27 05:59:27;;;;;;;9.40;8.40;;;;;;;5.87;94.27;94975.14;105152;1264;5355665;-81
2023/03/27 06:01:58;;;;;;;9.50;8.00;;;;;;;5.88;94.18;94978.11;109274;1273;22482;-81
2023/03/27 06:04:30;;;;;;;10.50;7.80;;;;;;;5.89;94.30;94974.95;109231;1273;22522;-81
2023/03/27 06:07:02;;;;;;;9.10;8.20;;;;;;;5.88;94.36;94974.06;109237;1273;22570;-81
2023/03/27 06:09:34;;;;;;;9.70;8.60;;;;;;;5.88;94.36;94974.06;109185;1273;52557;-81
2023/03/27 06:12:09;;;;;;;9.90;8.00;;;;;;;5.89;94.35;94978.80;109231;1273;22822;-82
2023/03/27 06:14:44;;;;;;;10.10;8.50;;;;;;;5.92;94.47;94978.09;109260;1273;23196;-82
2023/03/27 06:17:18;;;;;;;9.90;8.20;;;;;;;5.92;94.52;94979.52;109199;1273;72089;-82
2023/03/27 06:19:50;;;;;;;9.40;8.20;;;;;;;5.92;94.31;94979.58;109242;1273;23467;-82
2023/03/27 06:22:22;;;;;;;9.40;8.40;;;;;;;5.93;94.55;94978.08;109295;1266;23116;-81
2023/03/27 06:24:58;;;;;;;9.00;7.70;;;;;;;5.94;94.45;94977.44;109244;1267;22527;-81
2023/03/27 06:27:31;;;;;;;8.10;7.00;;;;;;;5.92;94.55;94981.63;109124;1273;100499;-83
2023/03/27 06:30:09;;;;;;;8.70;6.60;;;;;;;5.94;94.63;94982.69;109264;1273;23246;-82
2023/03/27 06:32:45;;;;;;;9.70;7.20;;;;;;;5.94;94.64;94982.17;109326;1273;22608;-81
2023/03/27 06:35:22;;;;;;;10.00;7.30;;;;;;;5.98;94.54;94980.85;109292;1251;22524;-82
2023/03/27 06:38:04;;;;;;;10.70;7.10;;;;;;;5.98;94.66;94978.94;109202;1267;55244;-81
2023/03/27 06:40:39;;;;;;;9.40;7.00;;;;;;;5.98;94.65;94978.90;109264;1272;22483;-81
2023/03/27 06:43:16;;;;;;;8.90;7.10;;;;;;;5.97;94.67;94978.07;109244;1273;22593;-81
2023/03/27 06:45:49;;;;;;;9.40;6.90;;;;;;;6.01;94.69;94979.84;109231;1273;24244;-81
2023/03/27 06:48:22;;;;;;;8.70;6.80;;;;;;;6.04;94.56;94985.57;109188;1273;79220;-81
2023/03/27 06:50:58;;;;;;;8.50;7.30;;;;;;;6.05;94.65;94989.45;109325;1272;22572;-81
2023/03/27 06:53:35;;;;;;;11.80;8.90;;;;;;;6.07;94.57;94991.23;109249;1273;22625;-81
2023/03/27 06:56:08;;;;;;;11.30;8.80;;;;;;;6.07;94.69;94992.05;109177;1273;22585;-81
2023/03/27 06:58:44;;;;;;;11.20;8.70;;;;;;;6.05;94.68;94995.88;109251;1272;98856;-81
2023/03/27 07:01:15;;;;;;;12.50;9.10;;;;;;;6.07;94.70;94995.96;109270;1260;22516;-81
2023/03/27 07:03:59;;;;;;;11.50;9.70;;;;;;;6.05;94.86;94999.45;109284;1272;22508;-82
2023/03/27 07:06:33;;;;;;;15.30;11.60;;;;;;;6.02;94.93;95002.19;109339;1272;22646;-81
2023/03/27 07:09:06;;;;;;;13.40;11.40;;;;;;;6.01;94.78;94998.98;109292;1272;62760;-81
2023/03/27 07:11:39;;;;;;;12.30;10.70;;;;;;;6.02;95.10;95000.92;109215;1268;23550;-81
2023/03/27 07:14:15;;;;;;;13.80;11.60;;;;;;;6.06;95.02;95001.44;109284;1265;23264;-82
2023/03/27 07:16:46;;;;;;;15.90;11.90;;;;;;;6.10;95.10;95001.10;109361;1257;24220;-81
2023/03/27 07:19:18;;;;;;;14.60;11.50;;;;;;;6.11;95.15;94998.93;109318;1267;71960;-81
2023/03/27 07:21:52;;;;;;;14.50;12.20;;;;;;;6.12;95.19;95001.08;109381;1265;22671;-81
2023/03/27 07:24:25;;;;;;;16.60;11.90;;;;;;;6.10;95.09;95001.42;109348;1272;22544;-81
2023/03/27 07:27:07;;;;;;;;;;;;;;;;;;;;;
2023/03/27 07:29:41;;;;;;;14.00;11.10;;;;;;;6.10;95.30;95001.11;108058;1265;1649941;-82
2023/03/27 07:32:15;;;;;;;12.80;10.20;;;;;;;6.10;95.43;95003.89;109306;1272;22518;-82
2023/03/27 07:34:50;;;;;;;12.70;10.20;;;;;;;6.13;95.53;95002.38;109317;1272;22559;-81
2023/03/27 07:37:22;;;;;;;11.80;10.30;;;;;;;6.15;95.60;95004.02;109260;1272;51651;-82
2023/03/27 07:39:55;;;;;;;10.70;8.50;;;;;;;6.19;95.56;95005.68;109328;1272;22544;-81
2023/03/27 07:42:31;;;;;;;11.50;8.30;;;;;;;6.20;95.59;95006.00;109272;1272;22548;-81
2023/03/27 07:45:03;;;;;;;10.20;7.90;;;;;;;6.22;95.52;95005.55;109325;1270;22573;-81
2023/03/27 07:47:42;;;;;;;10.40;8.00;;;;;;;6.22;95.66;95007.84;109256;1270;93716;-81
2023/03/27 07:50:13;;;;;;;;;;;;;;;6.23;95.59;95006.16;109380;1272;23132;-81
2023/03/27 07:52:43;;;;;;;;;;;;;;;6.22;95.55;95008.11;109373;1272;22552;-82
2023/03/27 07:55:21;;;;;;;10.00;7.90;;;;;;;6.24;95.75;95005.51;109353;1266;22758;-82
2023/03/27 07:57:58;;;;;;;9.10;7.30;;;;;;;6.26;95.92;95004.52;107851;1265;1950535;-82
2023/03/27 08:00:37;;;;;;;9.20;7.10;;;;;;;6.33;95.92;95011.76;109325;1272;23002;-82
2023/03/27 08:03:12;;;;;;;8.60;6.60;;;;;;;6.40;96.08;95018.80;109368;1272;23532;-82
2023/03/27 08:06:02;;;;;;;7.60;6.00;;;;;;;6.41;95.93;95014.20;109348;1272;25227;-82
2023/03/27 08:08:45;;;;;;;6.90;5.50;;;;;;;6.40;95.78;95018.84;109260;1270;73458;-82
2023/03/27 08:11:22;;;;;;;7.80;6.30;;;;;;;6.42;95.85;95019.98;109282;1270;22525;-82
2023/03/27 08:13:57;;;;;;;8.00;6.10;;;;;;;6.46;95.94;95019.63;109331;1265;23248;-82
2023/03/27 08:16:31;;;;;;;8.00;7.10;;;;;;;6.50;96.03;95018.21;109299;1272;22472;-81
2023/03/27 08:19:05;;;;;;;8.00;6.80;;;;;;;6.49;95.90;95020.91;109266;1267;35836;-82
2023/03/27 08:21:38;;;;;;;9.30;7.80;;;;;;;6.45;95.62;95021.27;109360;1266;22708;-81
2023/03/27 08:24:19;;;;;;;10.20;8.10;;;;;;;6.42;95.59;95025.81;109360;1270;23555;-82
2023/03/27 08:26:57;;;;;;;10.20;8.70;;;;;;;6.41;95.77;95027.67;109367;1272;23125;-82
2023/03/27 08:29:33;;;;;;;10.90;8.80;;;;;;;6.40;95.76;95029.43;109282;1272;105966;-82
2023/03/27 08:32:05;;;;;;;10.10;9.00;;;;;;;6.41;95.84;95030.90;109367;1272;22699;-82
2023/03/27 08:34:37;;;;;;;12.70;10.10;;;;;;;6.41;95.97;95030.90;109386;1272;22621;-82
2023/03/27 08:37:12;;;;;;;10.80;9.50;;;;;;;6.40;95.79;95029.34;109398;1272;22977;-82
2023/03/27 08:39:45;;;;;;;11.80;10.40;;;;;;;6.37;95.80;95032.59;109325;1272;99401;-82
2023/03/27 08:42:26;;;;;;;11.60;10.40;;;;;;;6.35;95.79;95032.48;109347;1272;23413;-82
2023/03/27 08:44:58;;;;;;;11.40;9.70;;;;;;;6.37;95.96;95037.02;109352;1272;22448;-82
2023/03/27 08:47:36;;;;;;;10.60;9.20;;;;;;;6.37;95.77;95038.23;107910;1252;1824970;-81
2023/03/27 08:50:21;;;;;;;10.40;8.80;;;;;;;6.35;95.81;95036.01;109392;1272;22533;-82
2023/03/27 08:52:57;;;;;;;11.10;8.20;;;;;;;6.35;95.81;95033.27;109274;1268;24197;-81
2023/03/27 08:55:39;;;;;;;8.70;6.80;;;;;;;6.40;96.03;95031.16;109343;1264;22556;-82
2023/03/27 08:58:22;;;;;;;8.30;6.60;;;;;;;6.43;95.72;95033.16;109245;1272;56159;-82
2023/03/27 09:01:00;;;;;;;8.20;6.50;;;;;;;6.50;95.87;95030.00;109364;1272;22507;-82
2023/03/27 09:03:41;;;;;;;7.30;5.60;;;;;;;6.57;96.14;95027.50;109380;1272;25410;-83
2023/03/27 09:06:21;;;;;;;5.50;3.80;;;;;;;6.61;96.13;95029.59;109407;1272;24548;-82
2023/03/27 09:09:02;;;;;;;7.70;6.20;;;;;;;6.62;95.77;95028.42;109322;1266;62554;-82
2023/03/27 09:11:47;;;;;;;7.40;6.20;;;;;;;6.62;95.68;95026.78;109385;1272;23246;-81
2023/03/27 09:14:33;;;;;;;6.70;5.70;;;;;;;6.61;95.76;95025.90;109291;1271;25266;-82
2023/03/27 09:17:09;;;;;;;6.50;5.60;;;;;;;6.60;95.65;95028.50;109315;1272;23826;-82
2023/03/27 09:19:52;;;;;;;6.20;5.60;;;;;;;6.57;95.53;95025.13;107985;1268;1752111;-82
2023/03/27 09:22:42;;;;;;;5.00;4.30;;;;;;;6.59;95.50;95025.66;109351;1265;22475;-81
2023/03/27 09:25:36;;;;;;;5.70;4.80;;;;;;;6.58;95.49;95027.23;109346;1272;22515;-82
2023/03/27 09:28:18;;;;;;;5.40;4.50;;;;;;;6.60;95.77;95023.96;105263;1266;5371868;-81
2023/03/27 09:30:56;;;;;;;5.20;4.20;;;;;;;6.62;95.88;95027.43;109266;1272;22524;-82
2023/03/27 09:33:28;;;;;;;5.50;3.60;;;;;;;6.64;95.82;95026.17;109316;1266;22566;-82
2023/03/27 09:36:01;;;;;;;2.90;2.60;;;;;;;6.65;95.77;95028.73;109366;1272;22578;-82
2023/03/27 09:38:39;;;;;;;3.30;3.00;;;;;;;6.68;95.81;95030.47;107800;1265;2058860;-82
2023/03/27 09:41:20;;;;;;;5.30;4.20;;;;;;;6.65;95.55;95028.36;109321;1272;22574;-83
2023/03/27 09:44:03;;;;;;;6.20;4.80;;;;;;;6.56;95.23;95032.79;109290;1272;22593;-83
2023/03/27 09:46:40;;;;;;;5.90;5.30;;;;;;;6.45;94.95;95035.08;109392;1272;22560;-84
2023/03/27 09:49:18;;;;;;;6.20;5.60;;;;;;;6.34;94.68;95036.64;107742;1270;2024540;-83
2023/03/27 09:52:28;;;;;;;;;;;;;;;;;;;;;
2023/03/27 09:55:05;;;;;;;8.30;6.50;;;;;;;6.36;95.51;95043.14;109241;1272;23883;-84
2023/03/27 09:58:00;;;;;;;8.10;6.90;;;;;;;6.33;95.32;95044.38;107851;1266;1915026;-83
2023/03/27 10:00:35;;;;;;;7.30;6.20;;;;;;;6.25;95.32;95047.95;109367;1264;23506;-83
2023/03/27 10:03:47;;;;;;;;;;;;;;;;;;;;;
2023/03/27 10:06:31;;;;;;;10.50;8.80;;;;;;;6.07;95.62;95043.92;109256;1272;22580;-83
2023/03/27 10:09:23;;;;;;;11.90;8.80;;;;;;;6.01;95.60;95049.34;107825;1263;2031140;-83
2023/03/27 10:12:09;;;;;;;13.40;10.30;;;;;;;6.02;96.04;95048.36;109408;1267;22548;-83
2023/03/27 10:14:50;;;;;;;13.80;11.00;;;;;;;6.04;96.30;95045.60;109335;1272;22745;-83
2023/03/27 10:17:36;;;;;;;13.10;10.70;;;;;;;6.06;96.43;95048.27;109373;1265;22560;-83
2023/03/27 10:20:16;;;;;;;12.60;9.00;;;;;;;6.06;96.55;95050.16;109320;1263;95210;-83
2023/03/27 10:22:58;;;;;;;6.80;5.30;;;;;;;6.05;96.59;95055.58;109387;1272;22556;-84
2023/03/27 10:25:43;;;;;;;;;;;;;;;;;;;;;
2023/03/27 10:28:30;;;;;;;4.80;3.90;;;;;;;5.90;95.60;95071.25;109128;1265;160514;-84
2023/03/27 10:31:20;;;;;;;3.70;2.80;;;;;;;5.84;95.62;95079.39;109364;1272;23886;-83
2023/03/27 10:34:31;;;;;;;3.50;2.70;;;;;;;5.76;95.10;95074.09;109256;1272;22645;-83
2023/03/27 10:37:25;;;;;;;1.90;1.80;;;;;;;5.60;94.74;95083.34;109304;1272;22566;-83
2023/03/27 10:40:25;;;;;;;2.90;2.20;;;;;;;5.46;94.33;95078.23;103526;1267;7508026;-83
2023/03/27 10:43:07;;;;;;;1.90;1.70;;;;;;;5.32;94.41;95085.76;109329;1265;22571;-84
2023/03/27 10:45:53;;;;;;;1.80;1.60;;;;;;;5.28;94.74;95083.06;109358;1265;23659;-84
2023/03/27 10:48:46;;;;;;;2.80;2.00;;;;;;;5.25;94.60;95086.95;109206;1272;110100;-82
2023/03/27 10:51:33;;;;;;;3.80;2.40;;;;;;;5.10;94.31;95082.23;109345;1272;25438;-84
2023/03/27 10:54:20;;;;;;;2.60;2.10;;;;;;;4.97;94.42;95091.90;109377;1270;22521;-83
2023/03/27 10:57:03;;;;;;;4.40;2.80;;;;;;;4.93;94.90;95092.20;109433;1272;22517;-83
2023/03/27 10:59:44;;;;;;;4.60;2.80;;;;;;;4.83;94.63;95118.41;109225;1249;55033;-81
2023/03/27 11:02:21;;;;;;;4.40;2.80;;;;;;;4.68;94.28;95127.52;109345;1272;22647;-82
2023/03/27 11:05:00;;;;;;;4.40;3.60;;;;;;;4.61;94.46;95133.41;109367;1272;22473;-82
2023/03/27 11:07:39;;;;;;;3.60;2.50;;;;;;;4.57;94.84;95135.81;109364;1272;22302;-81
2023/03/27 11:10:17;;;;;;;3.80;3.30;;;;;;;4.59;95.17;95147.65;109294;1250;109699;-82
2023/03/27 11:12:55;;;;;;;4.40;3.70;;;;;;;4.62;95.33;95150.08;109366;1265;22631;-82
2023/03/27 11:15:30;;;;;;;4.20;3.10;;;;;;;4.62;95.28;95155.75;109372;1272;22575;-82
2023/03/27 11:18:13;;;;;;;4.60;3.40;;;;;;;4.61;95.08;95163.11;109240;1263;69758;-82
2023/03/27 11:21:01;;;;;;;4.10;2.80;;;;;;;4.61;95.02;95170.89;109314;1268;22469;-82
2023/03/27 11:23:41;;;;;;;3.60;2.80;;;;;;;4.63;95.09;95172.23;109349;1272;22657;-82
2023/03/27 11:26:15;;;;;;;4.00;2.90;;;;;;;4.62;94.86;95177.59;109388;1267;22523;-82
2023/03/27 11:28:54;;;;;;;4.60;3.70;;;;;;;4.59;94.77;95177.83;105085;1269;5531572;-82
2023/03/27 11:31:40;;;;;;;5.30;3.80;;;;;;;4.55;94.78;95184.75;109295;1272;22520;-81
2023/03/27 11:34:18;;;;;;;5.10;3.60;;;;;;;4.52;94.72;95192.08;109298;1268;22592;-82
2023/03/27 11:36:52;;;;;;;5.10;3.70;;;;;;;4.49;94.46;95192.55;109329;1272;22480;-81
2023/03/27 11:39:32;;;;;;;4.20;3.50;;;;;;;4.47;94.41;95193.71;109263;1265;94575;-81
2023/03/27 11:42:15;;;;;;;6.80;4.90;;;;;;;4.50;94.64;95196.54;109368;1272;25322;-81
2023/03/27 11:44:58;;;;;;;6.10;4.80;;;;;;;4.46;94.26;95199.49;109301;1272;22537;-81
2023/03/27 11:47:53;;;;;;;5.70;4.90;;;;;;;4.42;93.98;95217.85;109318;1272;25421;-82
2023/03/27 11:50:32;;;;;;;6.20;5.20;;;;;;;4.35;93.98;95222.35;109198;1265;90594;-81
2023/03/27 11:53:30;;;;;;;6.00;5.30;;;;;;;4.30;93.85;95239.59;109375;1272;26687;-81
2023/03/27 11:56:20;;;;;;;5.50;4.50;;;;;;;4.19;93.42;95244.38;109313;1272;22717;-81
2023/03/27 11:59:11;;;;;;;4.70;4.20;;;;;;;4.10;93.54;95244.28;109232;1272;123575;-82
2023/03/27 12:01:58;;;;;;;5.50;4.30;;;;;;;4.04;93.50;95255.14;109577;1272;22521;-82
2023/03/27 12:04:41;;;;;;;5.20;4.40;;;;;;;3.98;93.48;95263.00;109266;1272;25412;-81
2023/03/27 12:07:43;;;;;;;;;;;;;;;;;;;;;
2023/03/27 12:10:33;;;;;;;6.90;5.70;;;;;;;3.83;93.32;95291.21;109294;1266;95361;-82
2023/03/27 12:13:43;;;;;;;8.50;6.50;;;;;;;3.76;93.44;95295.52;109325;1272;24192;-82
2023/03/27 12:17:00;;;;;;;8.10;6.20;;;;;;;3.68;93.16;95305.58;109386;1272;22530;-82
2023/03/27 12:19:58;;;;;;;8.10;6.50;;;;;;;3.51;93.07;95311.42;107984;1272;1792697;-82
2023/03/27 12:23:00;;;;;;;8.50;6.80;;;;;;;3.33;93.18;95328.99;109242;1265;25413;-82
2023/03/27 12:25:50;;;;;;;8.40;6.90;;;;;;;3.23;92.97;95332.31;109253;1269;22556;-81
2023/03/27 12:28:51;;;;;;;9.60;7.50;;;;;;;3.10;92.62;95340.89;109150;1272;109828;-82
2023/03/27 12:31:42;;;;;;;7.50;6.20;;;;;;;3.02;92.30;95349.11;109318;1271;22522;-82